Latest Coastal Weather Observations for Proserpine

IDQ60701

Issued at 6:22 am EST Thursday 19 October 2017 (issued every 10 minutes, with the page automatically refreshed every 10 minutes)

About coastal observations | Map of coastal stations | Coastal observations for QLD | Marine services | Other Formats
Station Details ID: 033247 Name: PROSERPINE AIRPORT Lat: -20.49 Lon: 148.56 Height: 19.7 m
Data from the previous 72 hours. | See also: Recent months at Proserpine
Date/Time
EST
Temp
°C
Wind Pressure Rain since
9am
mm
Weather Cloud Vis
km
Sea
Height
m
Swell
Dir  Spd
kts
Gust
kts
hPa Trend Height
m
Period
s
Dir
19/06:00am 24.0 E 11 16 1015.2 - 19.6 Rain Cloudy 10 - - - -
19/05:30am 23.9 ESE 11 14 1014.6 - 19.2 - Partly cloudy 10 - - - -
19/05:00am 23.8 ESE 10 14 1014.5 - 19.2 - Partly cloudy 10 - - - -
19/04:35am 23.7 ESE 9 13 1014.4 - 19.2 - Partly cloudy 9 - - - -
19/04:30am 23.6 ESE 9 12 1014.4 - 19.2 - Partly cloudy 9 - - - -
19/04:10am 22.7 NE 4 6 1014.5 - 19.0 - Partly cloudy 8 - - - -
19/04:00am 22.7 NNE 5 7 1014.6 - 18.8 - Partly cloudy 6 - - - -
19/03:36am 22.6 NNE 3 6 1014.6 - 16.8 - Partly cloudy 6 - - - -
19/03:30am 22.6 N 4 5 1014.7 - 16.2 - Partly cloudy 9 - - - -
19/03:19am 23.0 ENE 5 9 1014.6 - 16.0 - Partly cloudy 10 - - - -
19/03:00am 23.0 ESE 5 7 1014.5 - 15.6 Recent precip. Cloudy 10 - - - -
19/02:30am 22.7 SE 6 8 1014.6 - 15.6 - Partly cloudy 10 - - - -
19/02:00am 22.5 SE 6 9 1015.0 - 15.4 - Partly cloudy 10 - - - -
19/01:30am 22.7 ESE 6 8 1015.4 - 15.4 - Partly cloudy 10 - - - -
19/01:26am 22.7 ESE 5 8 1015.4 - 15.4 - Partly cloudy 10 - - - -
19/01:00am 23.1 ESE 7 9 1015.8 - 15.0 - Partly cloudy 5 - - - -
19/12:57am 23.2 ESE 7 9 1015.9 - 15.0 - Partly cloudy 6 - - - -
19/12:30am 23.5 ESE 8 11 1016.1 - 15.0 - Partly cloudy 8 - - - -
19/12:23am 23.4 ESE 8 11 1016.4 - 15.0 - Partly cloudy 8 - - - -
19/12:00am 23.3 E 6 9 1016.5 - 15.0 - Cloudy 10 - - - -
 
Date/Time
EST
Temp
°C
Wind Pressure Rain since
9am
mm
Weather Cloud Vis
km
Sea
Height
m
Swell
Dir  Spd
kts
Gust
kts
hPa Trend Height
m
Period
s
Dir
18/11:31pm 23.5 SE 5 7 1016.7 - 15.0 - Partly cloudy 10 - - - -
18/11:30pm 23.6 SE 4 6 1016.7 - 15.0 - Partly cloudy 10 - - - -
18/11:00pm 23.8 E 6 8 1017.1 - 15.0 - Partly cloudy 10 - - - -
18/10:30pm 24.1 E 8 12 1016.8 - 15.0 - Partly cloudy 10 - - - -
18/10:00pm 23.9 E 5 9 1016.7 - 15.0 - Partly cloudy 10 - - - -
18/09:30pm 24.1 E 11 15 1016.4 - 15.0 - Partly cloudy 10 - - - -
18/09:00pm 24.3 E 9 13 1016.3 - 15.0 - Cloudy 10 - - - -
18/08:30pm 24.4 E 9 15 1015.7 - 15.0 - Partly cloudy 10 - - - -
18/08:00pm 24.3 E 7 9 1015.6 - 15.0 - Partly cloudy 10 - - - -
18/07:30pm 24.6 E 10 15 1015.2 - 15.0 - Partly cloudy 10 - - - -
18/07:00pm 24.6 E 7 10 1014.9 - 15.0 - Partly cloudy 10 - - - -
18/06:30pm 24.8 E 7 9 1014.8 - 15.0 - Partly cloudy 10 - - - -
18/06:00pm 24.6 ESE 8 14 1014.1 - 15.0 - Mostly cloudy 10 - - - -
18/05:30pm 24.9 ESE 8 12 1013.6 - 15.0 - - 10 - - - -
18/05:00pm 25.3 E 9 13 1013.1 - 15.0 - - 10 - - - -
18/04:30pm 26.4 E 13 18 1012.9 - 15.0 - - 10 - - - -
18/04:00pm 25.7 E 13 18 1012.5 - 15.0 - Partly cloudy 10 - - - -
18/03:30pm 25.8 E 12 18 1012.3 - 15.0 - Partly cloudy 10 - - - -
18/03:00pm 26.1 E 13 19 1012.4 - 15.0 - Cloudy 10 - - - -
18/02:30pm 26.8 ENE 12 16 1012.8 - 15.0 - Partly cloudy 10 - - - -
18/02:00pm 27.6 ENE 11 16 1013.0 - 15.0 - Partly cloudy 10 - - - -
18/01:30pm 27.0 ENE 13 18 1013.4 - 14.8 - Partly cloudy 10 - - - -
18/01:00pm 25.8 E 8 11 1013.7 - 14.8 - Partly cloudy 10 - - - -
18/12:30pm 24.3 NNE 4 6 1014.4 - 14.8 - Partly cloudy 10 - - - -
18/12:22pm 24.0 N 5 6 1014.7 - 14.8 - Partly cloudy 10 - - - -
18/12:16pm 24.1 N 5 7 1014.7 - 14.8 - Partly cloudy 10 - - - -
18/12:00pm 23.5 NNE 1 5 1015.0 - 14.8 Rain Cloudy 5 - - - -
18/11:58am 23.5 NNE 1 5 1015.0 - 14.8 - Partly cloudy 5 - - - -
18/11:53am 23.6 NNE 1 5 1015.1 - 13.8 - Partly cloudy 10 - - - -
18/11:30am 23.2 N 4 7 1015.2 - 13.8 - Partly cloudy 10 - - - -
18/11:29am 23.0 N 4 7 1015.2 - 13.8 - Partly cloudy 10 - - - -
18/11:23am 22.8 N 4 7 1015.2 - 13.8 - Partly cloudy 10 - - - -
18/11:00am 22.0 N 5 8 1015.3 - 11.4 - Partly cloudy 2 - - - -
18/10:30am 22.5 NE 4 7 1015.2 - 2.8 - Partly cloudy 3 - - - -
18/10:21am 23.1 S 3 6 1015.3 - 1.0 - Partly cloudy 6 - - - -
18/10:00am 24.0 S 5 6 1015.2 - 0.0 - Partly cloudy 10 - - - -
18/09:30am 24.2 NE 4 7 1015.3 - 0.0 - Partly cloudy 10 - - - -
18/09:00am 24.0 NE 4 7 1015.7 - 15.0 - Cloudy 10 - - - -
18/08:30am 23.4 NE 2 4 1015.1 - 15.0 - Partly cloudy 10 - - - -
18/08:14am 23.0 NE 3 5 1014.8 - 15.0 - Partly cloudy 10 - - - -
18/08:00am 22.6 ENE 3 4 1014.5 - 15.0 - Partly cloudy 10 - - - -
18/07:59am 22.5 ENE 3 4 1014.4 - 15.0 - Partly cloudy 10 - - - -
18/07:30am 21.9 SSW 4 6 1013.5 - 15.0 - Partly cloudy 10 - - - -
18/07:29am 22.0 SSW 4 6 1013.5 - 15.0 - Partly cloudy 10 - - - -
18/07:24am 22.0 S 4 6 1013.4 - 15.0 - Partly cloudy 10 - - - -
18/07:04am 21.7 SSW 5 7 1013.2 - 14.2 - Partly cloudy 6 - - - -
18/07:02am 21.9 SSW 6 7 1012.9 - 13.4 - Partly cloudy 10 - - - -
18/07:00am 21.8 SW 6 7 1012.8 - 13.0 - Cloudy 10 - - - -
18/06:30am 21.5 SSW 7 9 1012.5 - 13.0 - Partly cloudy 10 - - - -
18/06:00am 21.4 SSW 5 6 1012.7 - 13.0 - Cloudy 10 - - - -
18/05:36am 21.3 SW 4 5 1012.5 - 13.0 - Partly cloudy 10 - - - -
18/05:30am 21.3 SW 4 5 1012.5 - 13.0 - Partly cloudy 10 - - - -
18/05:00am 21.4 SSE 3 4 1012.1 - 13.0 - Partly cloudy 10 - - - -
18/04:30am 21.7 SE 4 7 1011.8 - 13.0 - Partly cloudy 10 - - - -
18/04:09am 21.2 S 4 5 1011.5 - 13.0 - Partly cloudy 10 - - - -
18/04:00am 21.1 S 4 6 1011.5 - 13.0 - Partly cloudy 10 - - - -
18/03:31am 21.1 SSW 5 7 1011.1 - 13.0 - Partly cloudy 10 - - - -
18/03:30am 21.1 SSW 5 7 1011.1 - 13.0 - Partly cloudy 10 - - - -
18/03:01am 21.1 SSW 4 6 1011.1 - 12.6 - Partly cloudy 10 - - - -
18/03:00am 21.1 S 4 6 1011.1 - 12.6 - Cloudy 10 - - - -
18/02:41am 21.0 S 6 8 1010.9 - 12.6 - Partly cloudy 4 - - - -
18/02:40am 21.0 S 6 9 1010.9 - 12.6 - Partly cloudy 10 - - - -
18/02:30am 21.0 S 8 10 1010.8 - 12.6 - Partly cloudy 10 - - - -
18/02:03am 21.0 SSW 6 8 1011.5 - 12.6 - Partly cloudy 10 - - - -
18/02:00am 21.0 SSW 7 8 1011.4 - 12.6 - Partly cloudy 10 - - - -
18/01:30am 21.0 S 7 9 1011.4 - 12.4 - Partly cloudy 10 - - - -
18/01:00am 20.9 SE 8 10 1011.8 - 12.4 - Partly cloudy 10 - - - -
18/12:30am 21.0 ESE 8 11 1011.9 - 12.2 - Partly cloudy 10 - - - -
18/12:00am 21.4 SE 8 11 1012.0 - 11.4 Rain Cloudy 10 - - - -
 
Date/Time
EST
Temp
°C
Wind Pressure Rain since
9am
mm
Weather Cloud Vis
km
Sea
Height
m
Swell
Dir  Spd
kts
Gust
kts
hPa Trend Height
m
Period
s
Dir
17/11:30pm 21.6 SE 6 7 1012.8 - 9.8 - Partly cloudy 9 - - - -
17/11:22pm 21.6 ENE 5 6 1013.1 - 9.2 - Partly cloudy 10 - - - -
17/11:18pm 21.6 ENE 4 6 1013.3 - 9.0 - Partly cloudy 9 - - - -
17/11:00pm 21.6 ESE 5 8 1013.5 - 7.8 - Partly cloudy 5 - - - -
17/10:49pm 21.6 NE 2 9 1013.7 - 6.0 - Partly cloudy 3 - - - -
17/10:39pm 21.6 W 2 3 1013.7 - 3.6 - Partly cloudy 6 - - - -
17/10:30pm 21.5 SW 3 4 1013.6 - 3.0 - Partly cloudy 8 - - - -
17/10:00pm 21.8 WNW 3 4 1013.3 - 2.2 - Partly cloudy 10 - - - -
17/09:30pm 21.7 SSW 5 6 1012.9 - 2.0 - Partly cloudy 10 - - - -
17/09:06pm 22.0 SE 4 6 1012.8 - 2.0 - Partly cloudy 10 - - - -
17/09:00pm 22.0 SE 5 6 1012.6 - 2.0 Recent precip. Cloudy 10 - - - -
17/08:32pm 21.8 SSE 10 14 1012.4 - 2.0 - Partly cloudy 10 - - - -
17/08:30pm 21.7 SSE 11 14 1012.4 - 2.0 - Partly cloudy 10 - - - -
17/08:23pm 21.9 SSE 9 12 1012.4 - 2.0 - Partly cloudy 10 - - - -
17/08:04pm 22.0 ESE 5 7 1012.3 - 1.4 - Partly cloudy 10 - - - -
17/08:00pm 21.9 ESE 4 7 1012.2 - 1.4 - Partly cloudy 10 - - - -
17/07:30pm 22.0 SSE 6 7 1011.6 - 1.4 - Partly cloudy 10 - - - -
17/07:00pm 21.8 S 5 7 1011.6 - 1.4 - Partly cloudy 10 - - - -
17/06:30pm 22.0 SSW 5 5 1011.7 - 1.2 - Partly cloudy 10 - - - -
17/06:00pm 22.3 S 5 6 1011.3 - 1.0 Recent precip. Partly cloudy 10 - - - -
17/05:30pm 23.0 SSE 5 6 1011.4 - 0.8 - Partly cloudy 10 - - - -
17/05:00pm 23.4 SE 5 8 1011.4 - 0.4 - Partly cloudy 10 - - - -
17/04:30pm 24.1 ESE 6 8 1011.1 - 0.2 - Partly cloudy 10 - - - -
17/04:00pm 25.1 ESE 8 10 1010.6 - 0.2 - Partly cloudy 10 - - - -
17/03:30pm 25.5 SE 10 13 1010.4 - 0.2 - Partly cloudy 10 - - - -
17/03:00pm 25.5 ESE 11 15 1010.3 - 0.2 - Cloudy 10 - - - -
17/02:30pm 26.0 SE 11 15 1010.5 - 0.2 - Partly cloudy 10 - - - -
17/02:00pm 27.0 ESE 10 16 1010.6 - 0.2 - Partly cloudy 10 - - - -
17/01:30pm 27.0 E 9 13 1010.8 - 0.2 - Partly cloudy 10 - - - -
17/01:00pm 26.8 ESE 8 12 1011.1 - 0.2 - Partly cloudy 10 - - - -
17/12:30pm 25.6 ESE 9 13 1011.8 - 0.2 - Partly cloudy 10 - - - -
17/12:00pm 25.7 E 10 14 1012.4 - 0.2 - Mostly cloudy 10 - - - -
17/11:30am 25.9 ESE 11 15 1012.9 - 0.2 - Partly cloudy 10 - - - -
17/11:00am 26.2 ESE 11 15 1013.0 - 0.2 - Partly cloudy 10 - - - -
17/10:30am 25.5 ESE 9 12 1013.4 - 0.2 - Partly cloudy 10 - - - -
17/10:00am 24.7 ESE 8 10 1013.7 - 0.0 - Partly cloudy 10 - - - -
17/09:34am 24.8 ESE 9 12 1013.9 - 0.0 - Partly cloudy 10 - - - -
17/09:30am 24.8 ESE 8 12 1013.8 - 0.0 - Partly cloudy 10 - - - -
17/09:00am 23.7 ESE 4 7 1013.6 - 6.6 - Cloudy 10 - - - -
17/08:44am 23.2 E 3 6 1013.3 - 6.6 - Partly cloudy 10 - - - -
17/08:30am 23.0 ESE 4 5 1013.3 - 6.6 - - 10 - - - -
17/08:00am 22.8 SE 5 8 1012.7 - 6.6 - - 10 - - - -
17/07:30am 21.5 SSE 3 4 1012.5 - 6.6 - Partly cloudy 10 - - - -
17/07:00am 20.5 SSW 2 4 1011.8 - 6.6 - Partly cloudy 10 - - - -
17/06:30am 19.5 SSW 5 5 1011.1 - 6.6 - - 10 - - - -
17/06:07am 19.2 SSW 6 8 1010.8 - 6.6 - Partly cloudy 10 - - - -
17/06:00am 19.2 SW 5 6 1011.2 - 6.6 - Cloudy 10 - - - -
17/05:30am 19.0 SW 7 8 1010.5 - 6.6 - Cloudy 10 - - - -
17/05:00am 18.7 SW 3 3 1010.2 - 6.6 - Partly cloudy 10 - - - -
17/04:30am 18.7 SW 5 6 1010.2 - 6.6 - Partly cloudy 10 - - - -
17/04:28am 18.7 SW 5 7 1010.2 - 6.6 - Partly cloudy 10 - - - -
17/04:00am 18.5 SSW 5 5 1009.9 - 6.6 - - 10 - - - -
17/03:30am 18.6 SSE 5 6 1009.6 - 6.6 - - 10 - - - -
17/03:00am 18.6 SW 3 4 1010.5 - 6.6 - Partly cloudy 10 - - - -
17/02:30am 18.8 CALM 0 0 1010.5 - 6.6 - - 10 - - - -
17/02:00am 18.9 SW 2 3 1010.9 - 6.6 - - 10 - - - -
17/01:30am 19.2 CALM 0 0 1011.5 - 6.6 - Partly cloudy 10 - - - -
17/01:00am 19.2 CALM 0 0 1012.3 - 6.6 - Partly cloudy 10 - - - -
17/12:30am 19.2 ENE 3 4 1012.5 - 6.6 - Partly cloudy 10 - - - -
17/12:00am 19.3 E 3 5 1012.6 - 6.6 - Mostly cloudy 10 - - - -
 
Date/Time
EST
Temp
°C
Wind Pressure Rain since
9am
mm
Weather Cloud Vis
km
Sea
Height
m
Swell
Dir  Spd
kts
Gust
kts
hPa Trend Height
m
Period
s
Dir
16/11:30pm 19.3 NNW 3 4 1013.0 - 6.6 - Cloudy 10 - - - -
16/11:00pm 19.2 SSW 3 4 1013.1 - 6.6 - Partly cloudy 10 - - - -
16/10:30pm 19.2 SSW 3 6 1013.4 - 6.6 - Cloudy 10 - - - -
16/10:00pm 19.3 SSW 6 7 1013.4 - 6.4 - Partly cloudy 10 - - - -
16/09:30pm 19.1 SW 4 7 1013.4 - 5.6 - Cloudy 10 - - - -
16/09:00pm 19.1 SSW 7 9 1013.6 - 5.2 Recent precip. Cloudy 10 - - - -
16/08:30pm 19.1 SSW 8 10 1013.5 - 5.0 - Partly cloudy 10 - - - -
16/08:12pm 19.1 SSW 8 9 1013.1 - 4.4 - Partly cloudy 10 - - - -
16/08:00pm 19.2 S 8 10 1012.9 - 4.2 - Partly cloudy 10 - - - -
16/07:41pm 19.9 SSW 7 16 1012.8 - 3.6 - Partly cloudy 10 - - - -
16/07:30pm 20.8 SSW 4 6 1012.6 - 3.2 - Partly cloudy 10 - - - -
16/07:00pm 20.9 SSW 3 4 1012.2 - 2.4 - Partly cloudy 10 - - - -
16/06:30pm 20.9 E 1 3 1011.9 - 1.8 - Partly cloudy 10 - - - -
16/06:00pm 20.9 NE 3 4 1011.4 - 1.4 Rain Cloudy 10 - - - -
16/05:30pm 21.1 NE 6 9 1010.9 - 1.0 - Partly cloudy 10 - - - -
16/05:00pm 22.3 ENE 8 11 1010.7 - 0.6 - Cloudy 10 - - - -
16/04:30pm 23.0 E 9 14 1010.3 - 0.6 - Partly cloudy 10 - - - -
16/04:00pm 23.3 E 7 9 1010.1 - 0.6 - Partly cloudy 10 - - - -
16/03:30pm 23.6 E 7 10 1010.2 - 0.6 - Partly cloudy 10 - - - -
16/03:00pm 23.4 E 7 9 1009.8 - 0.6 Recent precip. Cloudy 10 - - - -
16/02:30pm 23.4 E 8 11 1009.9 - 0.4 - Partly cloudy 10 - - - -
16/02:00pm 24.6 E 9 14 1010.2 - 0.2 - Partly cloudy 10 - - - -
16/01:30pm 25.2 ESE 8 13 1010.5 - 0.2 - Partly cloudy 10 - - - -
16/01:00pm 25.2 E 9 13 1010.6 - 0.2 - Partly cloudy 10 - - - -
16/12:30pm 25.3 ESE 10 14 1010.7 - 0.2 - - 10 - - - -
16/12:00pm 24.8 ESE 10 15 1011.2 - 0.2 - Partly cloudy 10 - - - -
16/11:30am 24.3 E 8 11 1011.8 - 0.2 - Partly cloudy 10 - - - -
16/11:06am 23.8 ESE 8 11 1012.1 - 0.2 - Partly cloudy 10 - - - -
16/11:00am 23.9 ESE 6 9 1012.2 - 0.2 - Partly cloudy 10 - - - -
16/10:30am 22.6 N 3 5 1012.8 - 0.2 - Partly cloudy 10 - - - -
16/10:29am 22.8 N 3 5 1012.8 - 0.2 - Partly cloudy 10 - - - -
16/10:17am 22.2 E 1 3 1012.8 - 0.2 - Partly cloudy 10 - - - -
16/10:00am 21.9 ESE 5 7 1012.8 - 0.0 - Partly cloudy 10 - - - -
16/09:30am 21.1 ENE 3 7 1012.8 - 0.0 - Partly cloudy 10 - - - -
16/09:00am 20.8 E 6 8 1012.8 - 22.8 Recent precip. Cloudy 10 - - - -
16/08:30am 21.4 NNW 2 4 1012.9 - 22.6 - Partly cloudy 10 - - - -
16/08:00am 21.3 NW 3 5 1012.9 - 22.6 - Partly cloudy 10 - - - -
16/07:31am 21.2 CALM 0 0 1012.8 - 22.0 - Partly cloudy 10 - - - -
16/07:30am 21.3 CALM 0 0 1012.8 - 22.0 - Partly cloudy 10 - - - -
16/07:15am 21.1 SSE 4 7 1012.5 - 22.0 - Partly cloudy 10 - - - -
16/07:00am 20.9 SSE 6 8 1012.3 - 22.0 - Partly cloudy 10 - - - -
16/06:50am 20.8 SE 5 8 1012.3 - 22.0 - Partly cloudy 10 - - - -
16/06:31am 20.6 SE 9 14 1012.0 - 21.4 - Partly cloudy 6 - - - -
16/06:30am 20.6 SE 8 14 1011.9 - 21.2 - Partly cloudy 8 - - - -

Other Formats:

Comma delimited format used in spreadsheet applications
http://www.bom.gov.au/fwo/IDQ60701/IDQ60701.94365.axf

JavaScript Object Notation format (JSON) in row-major order
http://www.bom.gov.au/fwo/IDQ60701/IDQ60701.94365.json